Time;durP1;ratioP1;P1;durP2;ratioP2;P2;SDS_P1;SDS_P2;PMS_P1;PMS_P2;Temp;Humidity;BMP_temperature;BMP_pressure;BME280_temperature;BME280_humidity;BME280_pressure;Samples;Min_cycle;Max_cycle;Signal;HPM_P1;HPM_P2
2023/08/02 06:02:19;;;;;;;49.15;5.63;;;;;;;;;;5057677;23;20043;-85
2023/08/02 06:04:45;;;;;;;48.63;5.63;;;;;;;;;;4932426;29;20087;-86
2023/08/02 06:07:10;;;;;;;60.55;6.40;;;;;;;;;;4932258;29;20563;-83
2023/08/02 06:09:36;;;;;;;58.67;6.75;;;;;;;;;;4933885;29;20043;-86
2023/08/02 06:12:02;;;;;;;60.42;6.47;;;;;;;;;;4933683;29;20427;-86
2023/08/02 06:14:27;;;;;;;59.47;7.40;;;;;;;;;;4933448;29;20059;-85
2023/08/02 06:16:52;;;;;;;56.30;7.32;;;;;;;;;;4933366;29;20044;-87
2023/08/02 06:19:18;;;;;;;62.22;7.90;;;;;;;;;;4933425;29;20044;-87
2023/08/02 06:21:43;;;;;;;53.65;7.30;;;;;;;;;;4933715;29;20043;-88
2023/08/02 06:24:09;;;;;;;50.33;6.20;;;;;;;;;;4933625;29;20036;-87
2023/08/02 06:26:34;;;;;;;57.83;7.28;;;;;;;;;;4937382;29;20119;-86
2023/08/02 06:29:00;;;;;;;67.78;7.28;;;;;;;;;;4936287;29;20179;-86
2023/08/02 06:31:26;;;;;;;51.88;6.80;;;;;;;;;;4932468;28;20056;-84
2023/08/02 06:33:51;;;;;;;54.92;7.55;;;;;;;;;;4925273;29;20535;-85
2023/08/02 06:36:17;;;;;;;54.10;7.78;;;;;;;;;;4916652;29;20044;-87
2023/08/02 06:38:46;;;;;;;43.40;6.68;;;;;;;;;;4918497;29;20059;-86
2023/08/02 06:41:12;;;;;;;56.92;7.18;;;;;;;;;;4919244;28;20067;-85
2023/08/02 06:43:37;;;;;;;63.80;7.35;;;;;;;;;;4919515;28;20040;-86
2023/08/02 06:46:03;;;;;;;60.50;7.70;;;;;;;;;;4921160;29;20136;-86
2023/08/02 06:48:28;;;;;;;56.60;7.88;;;;;;;;;;4936619;28;20408;-87
2023/08/02 06:50:54;;;;;;;60.10;7.20;;;;;;;;;;4937391;28;20074;-87
2023/08/02 06:53:19;;;;;;;58.53;6.90;;;;;;;;;;4920693;28;20512;-87
2023/08/02 06:55:45;;;;;;;48.92;6.60;;;;;;;;;;4937090;28;20044;-86
2023/08/02 06:58:10;;;;;;;48.97;6.40;;;;;;;;;;4936504;28;20464;-86
2023/08/02 07:00:36;;;;;;;62.70;7.90;;;;;;;;;;4925274;29;20059;-85
2023/08/02 07:03:05;;;;;;;46.47;7.22;;;;;;;;;;4952631;29;20135;-85
2023/08/02 07:05:31;;;;;;;51.38;6.80;;;;;;;;;;4939055;29;20051;-86
2023/08/02 07:07:58;;;;;;;50.55;6.25;;;;;;;;;;4953790;29;20074;-86
2023/08/02 07:10:25;;;;;;;56.15;6.90;;;;;;;;;;4954181;29;20046;-86
2023/08/02 07:12:51;;;;;;;55.80;6.97;;;;;;;;;;4938190;29;20047;-88
2023/08/02 07:15:17;;;;;;;40.03;5.82;;;;;;;;;;4953208;29;20102;-88
2023/08/02 07:17:44;;;;;;;54.88;7.15;;;;;;;;;;4954541;29;20046;-87
2023/08/02 07:20:10;;;;;;;47.17;7.15;;;;;;;;;;4953919;29;20039;-88
2023/08/02 07:22:36;;;;;;;59.78;7.90;;;;;;;;;;4950510;29;20043;-87
2023/08/02 07:25:01;;;;;;;52.35;7.53;;;;;;;;;;4955463;29;20117;-88
2023/08/02 07:27:26;;;;;;;62.85;8.32;;;;;;;;;;4950793;29;20046;-88
2023/08/02 07:29:52;;;;;;;57.55;8.75;;;;;;;;;;4947519;29;20516;-88
2023/08/02 07:32:18;;;;;;;57.63;8.48;;;;;;;;;;4934952;29;20063;-90
2023/08/02 07:34:44;;;;;;;58.78;7.93;;;;;;;;;;4937956;29;20122;-89
2023/08/02 07:37:09;;;;;;;54.72;8.10;;;;;;;;;;4936030;29;20040;-88
2023/08/02 07:39:34;;;;;;;48.95;7.22;;;;;;;;;;4936830;29;20043;-89
2023/08/02 07:42:00;;;;;;;52.42;8.63;;;;;;;;;;4937210;28;20043;-88
2023/08/02 07:44:25;;;;;;;60.78;8.30;;;;;;;;;;4936175;29;20127;-89
2023/08/02 07:46:51;;;;;;;51.20;7.40;;;;;;;;;;4936457;29;20448;-87
2023/08/02 07:49:17;;;;;;;50.72;7.40;;;;;;;;;;4940213;28;20039;-87
2023/08/02 07:51:42;;;;;;;45.10;6.55;;;;;;;;;;4952339;28;20057;-87
2023/08/02 07:54:08;;;;;;;48.78;7.82;;;;;;;;;;4941057;28;20487;-85
2023/08/02 07:56:33;;;;;;;49.63;7.50;;;;;;;;;;4954723;29;20043;-86
2023/08/02 07:58:59;;;;;;;55.45;7.75;;;;;;;;;;4954883;29;20063;-86
2023/08/02 08:01:24;;;;;;;59.15;7.45;;;;;;;;;;4954434;29;20499;-85
2023/08/02 08:03:49;;;;;;;61.80;8.55;;;;;;;;;;4955235;29;20126;-85
2023/08/02 08:06:19;;;;;;;55.17;7.10;;;;;;;;;;4954030;28;20082;-86
2023/08/02 08:08:45;;;;;;;56.33;7.53;;;;;;;;;;4955083;28;20054;-85
2023/08/02 08:11:10;;;;;;;59.95;8.43;;;;;;;;;;4953635;28;20044;-87
2023/08/02 08:13:36;;;;;;;51.90;7.68;;;;;;;;;;4955048;29;20070;-85
2023/08/02 08:16:02;;;;;;;52.90;7.47;;;;;;;;;;4954872;29;20051;-86
2023/08/02 08:18:30;;;;;;;53.70;7.90;;;;;;;;;;4954764;29;20407;-87
2023/08/02 08:20:56;;;;;;;;;;;;;;;;;;4954944;29;20087;-84
2023/08/02 08:23:21;;;;;;;54.20;7.60;;;;;;;;;;4954200;29;19981;-86
2023/08/02 08:25:46;;;;;;;68.15;8.95;;;;;;;;;;4929970;29;20039;-86
2023/08/02 08:28:12;;;;;;;56.80;8.77;;;;;;;;;;4954280;28;20483;-87
2023/08/02 08:30:37;;;;;;;67.65;9.93;;;;;;;;;;4935882;29;20105;-87
2023/08/02 08:33:03;;;;;;;65.80;9.27;;;;;;;;;;4958518;28;20058;-85
2023/08/02 08:35:28;;;;;;;52.22;8.98;;;;;;;;;;4944728;28;20091;-89
2023/08/02 08:37:54;;;;;;;72.97;10.43;;;;;;;;;;4950286;28;20054;-89
2023/08/02 08:40:20;;;;;;;72.88;10.25;;;;;;;;;;4951772;28;20178;-87
2023/08/02 08:42:53;;;;;;;57.15;8.98;;;;;;;;;;4969197;28;20042;-87
2023/08/02 08:45:20;;;;;;;59.97;8.18;;;;;;;;;;4960574;28;20047;-87
2023/08/02 08:47:47;;;;;;;62.35;9.48;;;;;;;;;;4952552;28;20063;-87
2023/08/02 08:50:13;;;;;;;63.78;9.80;;;;;;;;;;4936456;29;20130;-85
2023/08/02 08:52:40;;;;;;;57.05;8.35;;;;;;;;;;4941481;29;20525;-86
2023/08/02 08:55:09;;;;;;;55.45;9.32;;;;;;;;;;4938477;29;20078;-86
2023/08/02 08:57:35;;;;;;;55.45;9.38;;;;;;;;;;4935770;29;20048;-86
2023/08/02 09:00:03;;;;;;;73.57;9.30;;;;;;;;;;4951361;28;20623;-84
2023/08/02 09:02:31;;;;;;;59.38;8.68;;;;;;;;;;4940046;29;20044;-86
2023/08/02 09:04:57;;;;;;;65.85;8.82;;;;;;;;;;4937692;29;20044;-86
2023/08/02 09:07:22;;;;;;;58.13;9.02;;;;;;;;;;4937452;28;20044;-85
2023/08/02 09:09:47;;;;;;;58.33;9.55;;;;;;;;;;4934182;29;20039;-85
2023/08/02 09:12:13;;;;;;;53.58;8.38;;;;;;;;;;4934136;29;20035;-84
2023/08/02 09:14:38;;;;;;;58.75;8.30;;;;;;;;;;4934801;29;20529;-85
2023/08/02 09:17:04;;;;;;;59.30;9.93;;;;;;;;;;4934410;29;20044;-84
2023/08/02 09:19:31;;;;;;;57.78;8.57;;;;;;;;;;4934600;29;20127;-84
2023/08/02 09:22:11;;;;;;;54.22;7.82;;;;;;;;;;4942972;29;20130;-85
2023/08/02 09:24:38;;;;;;;53.60;9.02;;;;;;;;;;4952801;29;20054;-85
2023/08/02 09:27:14;;;;;;;58.10;9.15;;;;;;;;;;4953233;29;20408;-84
2023/08/02 09:29:45;;;;;;;60.92;9.70;;;;;;;;;;4953423;29;20047;-85
2023/08/02 09:32:11;;;;;;;68.90;9.27;;;;;;;;;;4953898;28;20094;-83
2023/08/02 09:34:48;;;;;;;61.92;9.70;;;;;;;;;;4972858;28;20427;-85
2023/08/02 09:37:15;;;;;;;53.28;8.68;;;;;;;;;;4972181;28;20102;-84
2023/08/02 09:39:50;;;;;;;64.07;10.15;;;;;;;;;;4951901;28;20047;-85
2023/08/02 09:42:17;;;;;;;63.75;9.27;;;;;;;;;;4952813;29;20058;-85
2023/08/02 09:44:51;;;;;;;62.15;8.85;;;;;;;;;;4953245;29;20051;-85
2023/08/02 09:47:18;;;;;;;56.10;8.10;;;;;;;;;;4952753;29;20058;-84
2023/08/02 09:49:44;;;;;;;51.35;9.50;;;;;;;;;;4936383;29;20039;-86
2023/08/02 09:52:09;;;;;;;46.55;7.97;;;;;;;;;;4952453;29;20043;-87
2023/08/02 09:54:34;;;;;;;52.83;8.40;;;;;;;;;;4953395;29;20496;-87
2023/08/02 09:57:02;;;;;;;50.85;8.45;;;;;;;;;;4953128;29;20035;-83
2023/08/02 09:59:29;;;;;;;52.88;9.02;;;;;;;;;;4951793;28;20043;-83
2023/08/02 10:01:56;;;;;;;53.53;8.05;;;;;;;;;;4952770;29;20122;-86
2023/08/02 10:04:24;;;;;;;49.55;8.48;;;;;;;;;;4952585;29;20095;-85
2023/08/02 10:06:55;;;;;;;58.72;9.00;;;;;;;;;;4953020;29;20047;-86
2023/08/02 10:09:25;;;;;;;60.03;8.35;;;;;;;;;;4935827;29;20431;-87
2023/08/02 10:12:01;;;;;;;52.25;7.85;;;;;;;;;;4952939;29;20046;-86
2023/08/02 10:14:26;;;;;;;57.28;8.45;;;;;;;;;;4952379;29;20047;-85
2023/08/02 10:16:52;;;;;;;58.28;10.02;;;;;;;;;;4955689;29;20173;-85
2023/08/02 10:19:18;;;;;;;62.40;9.73;;;;;;;;;;4952949;29;20055;-86
2023/08/02 10:21:44;;;;;;;62.70;10.52;;;;;;;;;;4953861;29;20039;-85
2023/08/02 10:24:13;;;;;;;65.97;9.88;;;;;;;;;;4952775;29;20512;-85
2023/08/02 10:26:39;;;;;;;53.67;9.07;;;;;;;;;;4956038;29;20047;-84
2023/08/02 10:29:06;;;;;;;69.28;9.30;;;;;;;;;;4952252;29;20516;-83
2023/08/02 10:31:32;;;;;;;53.80;9.32;;;;;;;;;;4935229;29;20153;-85
2023/08/02 10:33:57;;;;;;;61.60;9.32;;;;;;;;;;4952752;29;20504;-84
2023/08/02 10:36:23;;;;;;;58.38;9.40;;;;;;;;;;4952369;29;20076;-83
2023/08/02 10:38:53;;;;;;;68.65;10.13;;;;;;;;;;4935403;29;20074;-84
2023/08/02 10:41:27;;;;;;;75.13;9.75;;;;;;;;;;4942822;28;20410;-86
2023/08/02 10:43:52;;;;;;;53.58;8.98;;;;;;;;;;4971983;28;20499;-84
2023/08/02 10:46:24;;;;;;;69.55;9.82;;;;;;;;;;4954164;28;20043;-84
2023/08/02 10:48:50;;;;;;;59.90;9.80;;;;;;;;;;4961866;28;20055;-85
2023/08/02 10:51:30;;;;;;;69.95;9.85;;;;;;;;;;4951690;29;20523;-87
2023/08/02 10:54:21;;;;;;;70.70;10.38;;;;;;;;;;4952715;29;20040;-83
2023/08/02 10:56:57;;;;;;;71.63;10.63;;;;;;;;;;4952296;29;20043;-84
2023/08/02 10:59:22;;;;;;;79.38;10.60;;;;;;;;;;4935008;29;20067;-86
2023/08/02 11:01:57;;;;;;;73.68;10.65;;;;;;;;;;4952005;29;20445;-87
2023/08/02 11:04:28;;;;;;;79.93;10.50;;;;;;;;;;4934858;29;20051;-87
2023/08/02 11:06:54;;;;;;;73.45;9.82;;;;;;;;;;4948509;29;20043;-87
2023/08/02 11:09:30;;;;;;;70.40;11.27;;;;;;;;;;4946688;29;20164;-90
2023/08/02 11:11:55;;;;;;;62.75;9.57;;;;;;;;;;4955029;28;20043;-87
2023/08/02 11:14:27;;;;;;;62.42;10.48;;;;;;;;;;4954191;29;20053;-84
2023/08/02 11:16:53;;;;;;;74.28;10.35;;;;;;;;;;4954655;29;20051;-85
2023/08/02 11:19:21;;;;;;;81.10;11.38;;;;;;;;;;4953734;29;20493;-85
2023/08/02 11:21:54;;;;;;;85.53;10.20;;;;;;;;;;4954193;29;20058;-84
2023/08/02 11:24:19;;;;;;;84.55;10.73;;;;;;;;;;4937050;29;20051;-83
2023/08/02 11:26:54;;;;;;;73.30;9.77;;;;;;;;;;4954801;29;20050;-84
2023/08/02 11:29:20;;;;;;;86.07;10.65;;;;;;;;;;4954992;29;20134;-83
2023/08/02 11:31:46;;;;;;;86.43;11.98;;;;;;;;;;4955491;29;20134;-84
2023/08/02 11:34:17;;;;;;;66.68;10.15;;;;;;;;;;4954849;29;20047;-85
2023/08/02 11:36:43;;;;;;;61.90;9.98;;;;;;;;;;4955653;29;20047;-86
2023/08/02 11:39:08;;;;;;;69.18;9.25;;;;;;;;;;4954791;29;20065;-85
2023/08/02 11:41:33;;;;;;;69.78;9.18;;;;;;;;;;4955751;29;20043;-86
2023/08/02 11:43:59;;;;;;;64.43;9.95;;;;;;;;;;4955193;29;20043;-86
2023/08/02 11:46:27;;;;;;;47.90;7.72;;;;;;;;;;4954760;29;20130;-84
2023/08/02 11:48:54;;;;;;;61.47;8.00;;;;;;;;;;4955723;29;20035;-86
2023/08/02 11:51:21;;;;;;;48.70;7.93;;;;;;;;;;4954815;29;20051;-85
2023/08/02 11:53:58;;;;;;;57.42;9.32;;;;;;;;;;4955149;29;20039;-84
2023/08/02 11:56:25;;;;;;;54.67;8.82;;;;;;;;;;4954702;29;20121;-85
2023/08/02 11:58:51;;;;;;;52.13;8.45;;;;;;;;;;4937763;29;20146;-84
2023/08/02 12:01:18;;;;;;;49.40;7.85;;;;;;;;;;4954617;29;20138;-84
2023/08/02 12:03:53;;;;;;;49.58;7.82;;;;;;;;;;4955201;29;20055;-84
2023/08/02 12:06:19;;;;;;;47.58;7.30;;;;;;;;;;4954436;29;20061;-84
2023/08/02 12:08:58;;;;;;;39.17;6.15;;;;;;;;;;4954812;29;20059;-85
2023/08/02 12:11:24;;;;;;;37.05;7.05;;;;;;;;;;4954553;29;20156;-86
2023/08/02 12:13:50;;;;;;;40.47;6.90;;;;;;;;;;4954688;29;20106;-84
2023/08/02 12:16:16;;;;;;;40.05;5.60;;;;;;;;;;4954386;29;20508;-84
2023/08/02 12:18:55;;;;;;;43.47;6.85;;;;;;;;;;4955065;29;20535;-84
2023/08/02 12:21:25;;;;;;;42.83;7.57;;;;;;;;;;4953999;28;20098;-83
2023/08/02 12:23:52;;;;;;;44.35;7.70;;;;;;;;;;4954111;29;20047;-83
2023/08/02 12:26:34;;;;;;;50.50;6.60;;;;;;;;;;4954188;29;20031;-84
2023/08/02 12:29:00;;;;;;;49.58;7.60;;;;;;;;;;4954639;29;20040;-84
2023/08/02 12:31:27;;;;;;;57.58;9.27;;;;;;;;;;4954288;29;20046;-85
2023/08/02 12:33:52;;;;;;;57.47;8.77;;;;;;;;;;4954288;29;20135;-83
2023/08/02 12:36:25;;;;;;;53.80;7.93;;;;;;;;;;4953925;29;20126;-84
2023/08/02 12:38:50;;;;;;;52.72;7.65;;;;;;;;;;4954402;29;20070;-85
2023/08/02 12:41:16;;;;;;;57.67;8.25;;;;;;;;;;4953957;29;20063;-85
2023/08/02 12:43:41;;;;;;;54.35;8.45;;;;;;;;;;4954372;29;20054;-84
2023/08/02 12:46:06;;;;;;;63.95;9.77;;;;;;;;;;4953882;29;20046;-84
2023/08/02 12:48:32;;;;;;;57.70;8.65;;;;;;;;;;4954160;29;20047;-85
2023/08/02 12:50:57;;;;;;;57.13;9.32;;;;;;;;;;4954181;29;20126;-85
2023/08/02 12:53:22;;;;;;;56.72;8.50;;;;;;;;;;4954195;29;20051;-82
2023/08/02 12:55:48;;;;;;;64.45;8.55;;;;;;;;;;4953870;29;20047;-83
2023/08/02 12:58:13;;;;;;;54.55;8.13;;;;;;;;;;4964452;28;20499;-83
2023/08/02 13:00:39;;;;;;;52.08;7.93;;;;;;;;;;4957541;28;20055;-83
2023/08/02 13:03:05;;;;;;;45.92;7.72;;;;;;;;;;4953385;29;20078;-84
2023/08/02 13:05:30;;;;;;;39.45;6.93;;;;;;;;;;4953957;29;20063;-84
2023/08/02 13:07:56;;;;;;;47.67;7.38;;;;;;;;;;4953896;29;20050;-84
2023/08/02 13:10:21;;;;;;;47.70;7.40;;;;;;;;;;4953138;29;20500;-84
2023/08/02 13:12:46;;;;;;;49.45;8.05;;;;;;;;;;4953952;29;20039;-86
2023/08/02 13:15:12;;;;;;;53.88;8.23;;;;;;;;;;4952928;29;20179;-85
2023/08/02 13:17:38;;;;;;;48.15;7.63;;;;;;;;;;4953858;29;20035;-84
2023/08/02 13:20:04;;;;;;;38.13;7.38;;;;;;;;;;4953626;29;20114;-85
2023/08/02 13:22:30;;;;;;;39.90;7.47;;;;;;;;;;4953190;29;20054;-85
2023/08/02 13:24:55;;;;;;;43.60;7.88;;;;;;;;;;4953557;29;20051;-86
2023/08/02 13:27:21;;;;;;;58.10;7.68;;;;;;;;;;4953271;29;20416;-84
2023/08/02 13:29:47;;;;;;;44.00;7.65;;;;;;;;;;4952935;28;20043;-85
2023/08/02 13:32:12;;;;;;;55.63;8.75;;;;;;;;;;4949380;29;20039;-85
2023/08/02 13:34:38;;;;;;;59.75;9.10;;;;;;;;;;4953141;28;20051;-85
2023/08/02 13:37:05;;;;;;;49.40;7.88;;;;;;;;;;4953373;29;20476;-86
2023/08/02 13:39:30;;;;;;;58.15;7.80;;;;;;;;;;4951584;28;20098;-87
2023/08/02 13:41:56;;;;;;;50.78;7.90;;;;;;;;;;4953604;29;20035;-87
2023/08/02 13:44:21;;;;;;;50.35;9.65;;;;;;;;;;4952555;29;20047;-86
2023/08/02 13:46:46;;;;;;;56.15;9.00;;;;;;;;;;4936000;29;20069;-88
2023/08/02 13:49:12;;;;;;;52.95;8.38;;;;;;;;;;4954826;29;20047;-88
2023/08/02 13:51:37;;;;;;;57.10;8.52;;;;;;;;;;4953785;29;20043;-85
2023/08/02 13:54:03;;;;;;;53.85;8.23;;;;;;;;;;4953076;29;20526;-85
2023/08/02 13:56:28;;;;;;;47.10;8.02;;;;;;;;;;4952429;29;20039;-85
2023/08/02 13:58:54;;;;;;;54.05;8.27;;;;;;;;;;4944104;28;20043;-85
2023/08/02 14:01:19;;;;;;;55.90;9.25;;;;;;;;;;4947165;28;20142;-83
2023/08/02 14:03:44;;;;;;;62.28;9.13;;;;;;;;;;4946187;28;20074;-83
2023/08/02 14:06:10;;;;;;;42.40;8.43;;;;;;;;;;4941410;29;20137;-84
2023/08/02 14:08:35;;;;;;;45.72;8.15;;;;;;;;;;4938731;28;20047;-82
2023/08/02 14:11:01;;;;;;;56.90;9.30;;;;;;;;;;4943608;28;20055;-84
2023/08/02 14:13:26;;;;;;;55.33;8.35;;;;;;;;;;4940621;28;20070;-83
2023/08/02 14:15:51;;;;;;;45.88;7.72;;;;;;;;;;4945106;28;20071;-83
2023/08/02 14:18:17;;;;;;;59.55;8.85;;;;;;;;;;4940889;29;20094;-83
2023/08/02 14:20:44;;;;;;;50.22;8.52;;;;;;;;;;4945136;29;20094;-82
2023/08/02 14:23:13;;;;;;;45.60;7.80;;;;;;;;;;4940592;29;20067;-84
2023/08/02 14:25:38;;;;;;;50.45;8.00;;;;;;;;;;4927792;29;20067;-84
2023/08/02 14:28:08;;;;;;;56.90;8.95;;;;;;;;;;4944902;29;20098;-83
2023/08/02 14:30:33;;;;;;;46.40;8.57;;;;;;;;;;4938783;29;20071;-84
2023/08/02 14:32:59;;;;;;;57.53;8.40;;;;;;;;;;4938234;28;20079;-84
2023/08/02 14:35:24;;;;;;;45.92;7.50;;;;;;;;;;4940084;29;20043;-83
2023/08/02 14:37:50;;;;;;;62.53;10.30;;;;;;;;;;4936606;29;20054;-84
2023/08/02 14:40:15;;;;;;;55.72;8.73;;;;;;;;;;4944458;29;20575;-85
2023/08/02 14:42:41;;;;;;;63.92;9.90;;;;;;;;;;4936432;29;20904;-85
2023/08/02 14:45:07;;;;;;;57.25;8.70;;;;;;;;;;4933567;29;20107;-84
2023/08/02 14:47:33;;;;;;;56.33;8.73;;;;;;;;;;4938833;28;20055;-85
2023/08/02 14:49:58;;;;;;;59.75;9.15;;;;;;;;;;4932024;29;20754;-84
2023/08/02 14:52:24;;;;;;;60.42;9.57;;;;;;;;;;4943397;29;20526;-84
2023/08/02 14:54:50;;;;;;;56.20;8.55;;;;;;;;;;4931495;29;20047;-86
2023/08/02 14:57:15;;;;;;;51.08;8.35;;;;;;;;;;4939799;29;20126;-84
2023/08/02 14:59:41;;;;;;;55.75;8.73;;;;;;;;;;4941679;29;20047;-86
2023/08/02 15:02:06;;;;;;;52.42;8.57;;;;;;;;;;4927561;29;20044;-84
2023/08/02 15:04:34;;;;;;;39.95;7.38;;;;;;;;;;4931512;29;20050;-88
2023/08/02 15:06:59;;;;;;;50.22;8.02;;;;;;;;;;4943682;29;20042;-87
2023/08/02 15:09:30;;;;;;;55.53;9.23;;;;;;;;;;4942622;29;20122;-85
2023/08/02 15:11:55;;;;;;;65.20;11.13;;;;;;;;;;4926300;29;20047;-85
2023/08/02 15:14:21;;;;;;;63.78;10.93;;;;;;;;;;4928093;29;20051;-85
2023/08/02 15:16:46;;;;;;;65.90;10.48;;;;;;;;;;4935236;29;20036;-88
2023/08/02 15:19:12;;;;;;;61.22;9.90;;;;;;;;;;4928021;29;20789;-87
2023/08/02 15:21:38;;;;;;;73.50;11.15;;;;;;;;;;4937789;29;20055;-85
2023/08/02 15:24:04;;;;;;;69.15;10.57;;;;;;;;;;4941722;29;20099;-86
2023/08/02 15:26:29;;;;;;;78.90;12.20;;;;;;;;;;4928041;29;20043;-86
2023/08/02 15:28:55;;;;;;;72.45;11.73;;;;;;;;;;4939347;28;20051;-84
2023/08/02 15:31:20;;;;;;;80.72;12.27;;;;;;;;;;4936787;29;20040;-87
2023/08/02 15:33:48;;;;;;;86.18;11.98;;;;;;;;;;4948376;29;20043;-85
2023/08/02 15:36:13;;;;;;;78.57;11.38;;;;;;;;;;4941447;29;20058;-85
2023/08/02 15:38:39;;;;;;;90.88;12.52;;;;;;;;;;4946632;29;20047;-85
2023/08/02 15:41:04;;;;;;;79.13;11.25;;;;;;;;;;4945810;29;20415;-87
2023/08/02 15:43:30;;;;;;;79.93;12.90;;;;;;;;;;4944137;29;20475;-87
2023/08/02 15:45:55;;;;;;;77.53;11.45;;;;;;;;;;4930830;29;20044;-86
2023/08/02 15:48:21;;;;;;;90.57;12.00;;;;;;;;;;4943576;29;20418;-85
2023/08/02 15:50:46;;;;;;;72.38;10.55;;;;;;;;;;4930176;29;20121;-86
2023/08/02 15:53:12;;;;;;;81.13;11.40;;;;;;;;;;4943880;29;20050;-88
2023/08/02 15:55:38;;;;;;;95.78;13.98;;;;;;;;;;4930131;29;20058;-86
2023/08/02 15:58:03;;;;;;;77.13;12.20;;;;;;;;;;4929185;29;20050;-86
2023/08/02 16:00:30;;;;;;;72.68;10.82;;;;;;;;;;4940325;28;20051;-85
2023/08/02 16:02:55;;;;;;;91.53;12.32;;;;;;;;;;4919164;29;20051;-86
2023/08/02 16:05:21;;;;;;;100.65;12.13;;;;;;;;;;4929898;29;20048;-86
2023/08/02 16:07:48;;;;;;;97.95;13.68;;;;;;;;;;4941698;28;20036;-86
2023/08/02 16:10:13;;;;;;;82.90;12.68;;;;;;;;;;4941101;29;20134;-87
2023/08/02 16:12:39;;;;;;;83.15;12.60;;;;;;;;;;4915621;29;20054;-85
2023/08/02 16:15:05;;;;;;;78.28;12.70;;;;;;;;;;4925588;29;20590;-84
2023/08/02 16:17:31;;;;;;;75.82;13.30;;;;;;;;;;4939607;28;20084;-88
2023/08/02 16:19:56;;;;;;;66.95;11.40;;;;;;;;;;4944022;29;20044;-88
2023/08/02 16:22:22;;;;;;;79.13;12.52;;;;;;;;;;4944038;29;20051;-87
2023/08/02 16:24:49;;;;;;;71.93;10.95;;;;;;;;;;4947280;29;20047;-87
2023/08/02 16:27:14;;;;;;;83.22;12.13;;;;;;;;;;4919388;29;20424;-88
2023/08/02 16:29:40;;;;;;;70.95;11.60;;;;;;;;;;4944686;29;20047;-87
2023/08/02 16:32:06;;;;;;;87.30;11.82;;;;;;;;;;4943878;29;20043;-89
2023/08/02 16:34:31;;;;;;;76.22;11.15;;;;;;;;;;4928823;29;20046;-88
2023/08/02 16:36:57;;;;;;;78.88;11.43;;;;;;;;;;4947096;29;20054;-86
2023/08/02 16:39:22;;;;;;;78.07;12.48;;;;;;;;;;4943701;29;20047;-87
2023/08/02 16:41:47;;;;;;;74.72;11.55;;;;;;;;;;4947618;29;20039;-87
2023/08/02 16:44:13;;;;;;;70.53;10.80;;;;;;;;;;4939289;29;20068;-87
2023/08/02 16:46:38;;;;;;;69.28;11.10;;;;;;;;;;4942693;29;20058;-87
2023/08/02 16:49:04;;;;;;;67.05;10.07;;;;;;;;;;4946781;29;20110;-87
2023/08/02 16:51:29;;;;;;;63.33;10.52;;;;;;;;;;4946800;29;20432;-89
2023/08/02 16:53:55;;;;;;;67.72;10.65;;;;;;;;;;4946703;29;20036;-88
2023/08/02 16:56:21;;;;;;;63.90;10.05;;;;;;;;;;4947069;29;20055;-86
2023/08/02 16:58:46;;;;;;;76.75;11.38;;;;;;;;;;4940615;29;20057;-87
2023/08/02 17:01:11;;;;;;;54.30;9.10;;;;;;;;;;4942739;29;20139;-86
2023/08/02 17:03:37;;;;;;;60.00;9.88;;;;;;;;;;4946578;29;20050;-87
2023/08/02 17:06:03;;;;;;;54.95;9.30;;;;;;;;;;4942922;29;20094;-86
2023/08/02 17:08:28;;;;;;;57.17;9.18;;;;;;;;;;4943272;29;20043;-87
2023/08/02 17:10:54;;;;;;;52.33;9.82;;;;;;;;;;4943575;29;20039;-85
2023/08/02 17:13:19;;;;;;;59.88;10.63;;;;;;;;;;4937799;29;20055;-86
2023/08/02 17:15:44;;;;;;;67.80;9.93;;;;;;;;;;4934617;29;20067;-86
2023/08/02 17:18:10;;;;;;;67.57;10.48;;;;;;;;;;4945517;29;20043;-85
2023/08/02 17:20:35;;;;;;;71.55;10.88;;;;;;;;;;4942341;29;20131;-87
2023/08/02 17:23:01;;;;;;;82.05;13.02;;;;;;;;;;4946107;29;20043;-89
2023/08/02 17:25:27;;;;;;;72.78;10.63;;;;;;;;;;4942400;29;20579;-90
2023/08/02 17:27:53;;;;;;;74.20;11.23;;;;;;;;;;4941662;29;20102;-86
2023/08/02 17:30:18;;;;;;;77.28;11.07;;;;;;;;;;4943835;29;20039;-87
2023/08/02 17:32:44;;;;;;;66.70;11.05;;;;;;;;;;4942176;28;20480;-86
2023/08/02 17:35:09;;;;;;;87.90;11.63;;;;;;;;;;4942566;28;20043;-87
2023/08/02 17:37:35;;;;;;;62.35;9.85;;;;;;;;;;4938844;29;20412;-87
2023/08/02 17:40:01;;;;;;;67.55;10.57;;;;;;;;;;4940860;28;20102;-86
2023/08/02 17:42:26;;;;;;;67.75;9.60;;;;;;;;;;4929680;28;20081;-87
2023/08/02 17:44:56;;;;;;;62.88;8.65;;;;;;;;;;4949043;29;20494;-89
2023/08/02 17:47:22;;;;;;;51.53;8.70;;;;;;;;;;4946627;29;20047;-88
2023/08/02 17:49:48;;;;;;;41.70;7.45;;;;;;;;;;4947708;29;20058;-87
2023/08/02 17:52:13;;;;;;;38.13;6.68;;;;;;;;;;4943265;29;20504;-86
2023/08/02 17:54:39;;;;;;;43.53;7.32;;;;;;;;;;4946316;29;20556;-86
2023/08/02 17:57:04;;;;;;;46.75;8.00;;;;;;;;;;4939355;29;20574;-84
2023/08/02 17:59:31;;;;;;;58.10;8.07;;;;;;;;;;4949955;29;20069;-86
2023/08/02 18:01:58;;;;;;;68.90;9.73;;;;;;;;;;4939105;29;20058;-84
2023/08/02 18:04:24;;;;;;;65.35;10.70;;;;;;;;;;4946002;28;20120;-86
2023/08/02 18:06:54;;;;;;;65.40;9.23;;;;;;;;;;4948415;28;20054;-87
2023/08/02 18:09:21;;;;;;;71.68;10.02;;;;;;;;;;4950005;28;20050;-86
2023/08/02 18:11:48;;;;;;;75.82;10.38;;;;;;;;;;4951459;28;20074;-88
2023/08/02 18:14:14;;;;;;;61.30;9.10;;;;;;;;;;4951246;28;20543;-87
2023/08/02 18:16:41;;;;;;;68.85;10.68;;;;;;;;;;4952731;28;20074;-87
2023/08/02 18:19:08;;;;;;;69.70;9.73;;;;;;;;;;4933972;29;20044;-86
2023/08/02 18:21:35;;;;;;;66.93;9.68;;;;;;;;;;4932845;29;20054;-87
2023/08/02 18:24:02;;;;;;;53.67;9.80;;;;;;;;;;4933936;29;20047;-87
2023/08/02 18:26:28;;;;;;;68.50;9.95;;;;;;;;;;4932917;29;20044;-88
2023/08/02 18:28:55;;;;;;;67.90;9.95;;;;;;;;;;4951983;28;20039;-86
2023/08/02 18:31:22;;;;;;;80.80;11.88;;;;;;;;;;4952045;28;20047;-89
2023/08/02 18:33:49;;;;;;;73.05;10.35;;;;;;;;;;4949145;28;20446;-84
2023/08/02 18:36:17;;;;;;;75.63;10.82;;;;;;;;;;4940524;28;20058;-86
2023/08/02 18:38:44;;;;;;;76.63;11.20;;;;;;;;;;4937218;29;20102;-87
2023/08/02 18:41:19;;;;;;;72.70;10.95;;;;;;;;;;4934989;29;20058;-87
2023/08/02 18:43:47;;;;;;;70.47;10.88;;;;;;;;;;4934095;29;20086;-87
2023/08/02 18:46:15;;;;;;;72.25;10.00;;;;;;;;;;4936485;28;20062;-88
2023/08/02 18:48:46;;;;;;;64.45;9.73;;;;;;;;;;4937033;29;20508;-87
2023/08/02 18:51:16;;;;;;;74.57;10.93;;;;;;;;;;4938202;29;20051;-89
2023/08/02 18:53:47;;;;;;;62.35;9.63;;;;;;;;;;4938012;29;20322;-89
2023/08/02 18:56:18;;;;;;;89.57;11.27;;;;;;;;;;4938463;28;20121;-89
2023/08/02 18:58:47;;;;;;;73.90;11.13;;;;;;;;;;4933548;29;20047;-87
2023/08/02 19:01:15;;;;;;;62.83;9.95;;;;;;;;;;4931968;29;20126;-87
2023/08/02 19:03:42;;;;;;;61.97;10.40;;;;;;;;;;4927266;29;20051;-86
2023/08/02 19:06:09;;;;;;;72.07;10.60;;;;;;;;;;4934996;29;20260;-87
2023/08/02 19:08:37;;;;;;;60.53;9.43;;;;;;;;;;4937549;29;20040;-86
2023/08/02 19:11:26;;;;;;;60.17;9.73;;;;;;;;;;4939517;29;20121;-88
2023/08/02 19:13:54;;;;;;;61.72;10.75;;;;;;;;;;4937715;29;20047;-88
2023/08/02 19:16:22;;;;;;;67.03;10.48;;;;;;;;;;4934681;28;20051;-90
2023/08/02 19:18:49;;;;;;;69.90;9.63;;;;;;;;;;4936409;29;20111;-89
2023/08/02 19:21:16;;;;;;;66.13;10.05;;;;;;;;;;4951300;28;20126;-87
2023/08/02 19:23:44;;;;;;;78.22;10.38;;;;;;;;;;4953251;28;20060;-89
2023/08/02 19:26:21;;;;;;;69.57;9.32;;;;;;;;;;4950904;29;20048;-90
2023/08/02 19:28:49;;;;;;;56.17;9.32;;;;;;;;;;4913257;29;20055;-87
2023/08/02 19:31:18;;;;;;;57.13;8.10;;;;;;;;;;4939991;28;20050;-86
2023/08/02 19:33:45;;;;;;;60.47;9.13;;;;;;;;;;4944399;29;20166;-86
2023/08/02 19:36:20;;;;;;;60.22;8.98;;;;;;;;;;4946503;29;20106;-88
2023/08/02 19:38:48;;;;;;;62.38;8.85;;;;;;;;;;4934992;28;20047;-88
2023/08/02 19:41:26;;;;;;;50.40;8.23;;;;;;;;;;4944283;29;20154;-88
2023/08/02 19:43:52;;;;;;;52.50;7.90;;;;;;;;;;4946252;29;20070;-89
2023/08/02 19:46:22;;;;;;;51.65;8.88;;;;;;;;;;4942517;28;20063;-88
2023/08/02 19:48:49;;;;;;;52.83;9.63;;;;;;;;;;4940304;29;20054;-87
2023/08/02 19:51:16;;;;;;;47.60;9.20;;;;;;;;;;4923805;29;20078;-89
2023/08/02 19:53:46;;;;;;;64.97;9.88;;;;;;;;;;4938156;29;20046;-89
2023/08/02 19:56:19;;;;;;;65.95;8.85;;;;;;;;;;4936825;29;20056;-89
2023/08/02 19:58:46;;;;;;;57.75;8.32;;;;;;;;;;4939859;28;20098;-89
2023/08/02 20:01:13;;;;;;;61.90;9.20;;;;;;;;;;4940145;28;20662;-89
2023/08/02 20:03:40;;;;;;;57.08;7.93;;;;;;;;;;4937990;29;20073;-86
2023/08/02 20:06:08;;;;;;;63.55;8.68;;;;;;;;;;4941751;29;20106;-87
2023/08/02 20:08:35;;;;;;;52.88;9.30;;;;;;;;;;4943187;29;20146;-87
2023/08/02 20:11:06;;;;;;;66.63;8.73;;;;;;;;;;4948242;29;20538;-88
2023/08/02 20:13:37;;;;;;;68.32;9.43;;;;;;;;;;4938293;29;20047;-88
2023/08/02 20:16:06;;;;;;;57.58;9.23;;;;;;;;;;4929551;29;20566;-87
2023/08/02 20:18:34;;;;;;;52.15;7.88;;;;;;;;;;4938560;29;20058;-88
2023/08/02 20:21:06;;;;;;;61.97;9.20;;;;;;;;;;4938460;29;20569;-87
2023/08/02 20:23:47;;;;;;;69.20;9.88;;;;;;;;;;4940893;29;20138;-86
2023/08/02 20:26:16;;;;;;;50.95;8.15;;;;;;;;;;4930249;29;20067;-89